createdAt,value
2023-01-12T00:02:28.124Z,8.30
2023-01-12T00:05:00.751Z,8.30
2023-01-12T00:07:33.236Z,8.30
2023-01-12T00:09:59.915Z,8.30
2023-01-12T00:12:26.549Z,8.40
2023-01-12T00:14:53.241Z,8.40
2023-01-12T00:17:20.186Z,8.40
2023-01-12T00:19:47.098Z,8.40
2023-01-12T00:22:13.769Z,8.40
2023-01-12T00:24:41.644Z,8.40
2023-01-12T00:27:11.532Z,8.40
2023-01-12T00:29:38.747Z,8.40
2023-01-12T00:32:07.542Z,8.40
2023-01-12T00:34:34.497Z,8.40
2023-01-12T00:39:56.678Z,8.40
2023-01-12T00:42:36.893Z,8.40
2023-01-12T00:45:09.915Z,8.50
2023-01-12T00:47:36.769Z,8.40
2023-01-12T00:50:04.827Z,8.40
2023-01-12T00:52:37.092Z,8.40
2023-01-12T00:55:04.034Z,8.40
2023-01-12T00:57:34.143Z,8.40
2023-01-12T01:00:00.986Z,8.40
2023-01-12T01:02:29.228Z,8.40
2023-01-12T01:04:59.110Z,8.40
2023-01-12T01:07:39.067Z,8.40
2023-01-12T01:10:09.899Z,8.30
2023-01-12T01:12:53.437Z,8.30
2023-01-12T01:15:20.671Z,8.30
2023-01-12T01:18:26.024Z,8.20
2023-01-12T01:21:12.958Z,8.20
2023-01-12T01:23:46.186Z,8.20
2023-01-12T01:26:19.095Z,8.20
2023-01-12T01:29:00.869Z,8.20
2023-01-12T01:31:31.309Z,8.20
2023-01-12T01:37:10.730Z,8.20
2023-01-12T01:39:37.409Z,8.30
2023-01-12T01:42:05.614Z,8.30
2023-01-12T01:44:52.418Z,8.30
2023-01-12T01:47:30.601Z,8.30
2023-01-12T01:50:00.568Z,8.30
2023-01-12T01:52:36.161Z,8.30
2023-01-12T01:55:21.495Z,8.30
2023-01-12T01:58:10.099Z,8.30
2023-01-12T02:00:39.202Z,8.30
2023-01-12T02:03:15.564Z,8.40
2023-01-12T02:06:00.023Z,8.40
2023-01-12T02:08:56.103Z,8.40
2023-01-12T02:11:23.468Z,8.40
2023-01-12T02:14:05.559Z,8.40
2023-01-12T02:16:34.741Z,8.40
2023-01-12T02:19:44.442Z,8.40
2023-01-12T02:22:58.609Z,8.30
2023-01-12T02:32:36.638Z,8.30
2023-01-12T02:35:26.376Z,8.30
2023-01-12T02:38:27.445Z,8.20
2023-01-12T02:41:34.974Z,8.30
2023-01-12T02:44:03.872Z,8.30
2023-01-12T02:47:11.310Z,8.30
2023-01-12T02:50:16.484Z,8.30
2023-01-12T02:52:56.644Z,8.30
2023-01-12T02:55:28.401Z,8.30
2023-01-12T03:07:04.544Z,8.40
2023-01-12T03:10:14.008Z,8.40
2023-01-12T03:13:16.047Z,8.50
2023-01-12T03:16:05.974Z,8.40
2023-01-12T03:19:16.262Z,8.40
2023-01-12T03:22:01.981Z,8.40
2023-01-12T03:25:06.713Z,8.30
2023-01-12T03:28:06.540Z,8.30
2023-01-12T03:33:44.931Z,8.20
2023-01-12T03:36:20.323Z,8.20
2023-01-12T03:39:28.668Z,8.20
2023-01-12T03:42:29.870Z,8.20
2023-01-12T03:45:38.637Z,8.10
2023-01-12T03:48:29.523Z,8.10
2023-01-12T03:51:27.513Z,8.10
2023-01-12T03:53:56.869Z,8.10
2023-01-12T03:56:36.521Z,8.00
2023-01-12T03:59:20.679Z,8.00
2023-01-12T04:01:53.033Z,8.00
2023-01-12T04:04:25.689Z,8.00
2023-01-12T04:06:59.880Z,8.00
2023-01-12T04:09:28.282Z,8.00
2023-01-12T04:12:01.123Z,8.10
2023-01-12T04:14:50.222Z,8.00
2023-01-12T04:17:25.671Z,8.00
2023-01-12T04:20:01.868Z,8.00
2023-01-12T04:22:34.542Z,8.00
2023-01-12T04:25:14.998Z,8.00
2023-01-12T04:30:36.236Z,8.10
2023-01-12T04:33:11.399Z,8.10
2023-01-12T04:35:42.616Z,8.10
2023-01-12T04:38:17.346Z,8.00
2023-01-12T04:41:02.459Z,8.10
2023-01-12T04:43:46.094Z,8.10
2023-01-12T04:46:19.141Z,8.10
2023-01-12T04:52:14.873Z,8.10
2023-01-12T04:54:45.990Z,8.10
2023-01-12T04:57:32.388Z,8.10
2023-01-12T05:02:39.737Z,8.20
2023-01-12T05:07:55.562Z,8.20
2023-01-12T05:10:30.472Z,8.20
2023-01-12T05:19:06.125Z,8.30
2023-01-12T05:21:50.719Z,8.30
2023-01-12T05:24:24.507Z,8.30
2023-01-12T05:33:39.383Z,8.30
2023-01-12T05:50:21.526Z,8.30
2023-01-12T06:01:49.262Z,8.30
2023-01-12T06:04:27.440Z,8.30
2023-01-12T06:07:07.757Z,8.30
2023-01-12T06:09:42.963Z,8.30
2023-01-12T06:15:46.422Z,8.30
2023-01-12T06:18:17.117Z,8.30
2023-01-12T06:20:52.852Z,8.30
2023-01-12T06:23:35.633Z,8.40
2023-01-12T06:26:29.995Z,8.40
2023-01-12T06:29:01.338Z,8.50
2023-01-12T06:31:28.129Z,8.50
2023-01-12T06:33:57.430Z,8.50
2023-01-12T06:36:33.950Z,8.50
2023-01-12T06:39:12.321Z,8.60
2023-01-12T06:41:48.581Z,8.70
2023-01-12T06:47:23.572Z,8.80
2023-01-12T06:49:55.584Z,8.80
2023-01-12T06:59:35.698Z,9.10
2023-01-12T07:06:18.503Z,9.30
2023-01-12T07:12:46.719Z,9.30
2023-01-12T07:15:13.774Z,9.40
2023-01-12T07:17:40.433Z,9.50
2023-01-12T07:20:10.624Z,9.60
2023-01-12T07:22:37.418Z,9.60
2023-01-12T07:25:47.027Z,9.70
2023-01-12T07:28:16.247Z,9.70
2023-01-12T07:30:49.073Z,9.80
2023-01-12T07:33:18.922Z,9.80
2023-01-12T07:35:48.072Z,9.80
2023-01-12T07:41:11.794Z,9.90
2023-01-12T07:46:15.794Z,10.00
2023-01-12T07:48:44.777Z,10.00
2023-01-12T07:53:59.117Z,10.00
2023-01-12T07:56:38.162Z,10.00
2023-01-12T07:59:19.437Z,10.10
2023-01-12T08:01:54.238Z,10.10
2023-01-12T08:04:34.642Z,10.10
2023-01-12T08:07:03.194Z,10.20
2023-01-12T08:21:25.481Z,10.20
2023-01-12T08:43:03.555Z,10.30
2023-01-12T08:45:31.423Z,10.30
2023-01-12T08:48:10.789Z,10.30
2023-01-12T09:02:06.980Z,10.40
2023-01-12T09:14:05.046Z,10.40
2023-01-12T09:17:02.939Z,10.40
2023-01-12T09:26:23.916Z,10.60
2023-01-12T09:29:26.653Z,10.60
2023-01-12T09:31:56.913Z,10.50
2023-01-12T09:37:52.635Z,10.50
2023-01-12T09:40:22.330Z,10.50
2023-01-12T09:42:55.290Z,10.50
2023-01-12T09:48:37.771Z,10.50
2023-01-12T09:54:52.016Z,10.60
2023-01-12T10:06:34.646Z,10.80
2023-01-12T10:23:42.211Z,10.50
2023-01-12T10:26:48.127Z,10.50
2023-01-12T10:29:52.532Z,10.50
2023-01-12T10:32:22.161Z,10.40
2023-01-12T10:44:30.045Z,10.40
2023-01-12T10:54:01.562Z,10.40
2023-01-12T11:07:07.024Z,10.40
2023-01-12T11:13:31.427Z,10.40
2023-01-12T11:19:41.470Z,10.40
2023-01-12T11:22:27.737Z,10.40
2023-01-12T13:23:16.310Z,10.20
2023-01-12T14:04:43.159Z,10.20
2023-01-12T16:50:02.534Z,10.00
2023-01-12T16:52:44.860Z,10.00
2023-01-12T16:58:29.039Z,10.00
2023-01-12T17:04:48.096Z,10.00
2023-01-12T17:07:08.803Z,10.00
2023-01-12T17:33:53.935Z,10.00
2023-01-12T17:51:59.853Z,9.90
2023-01-12T18:04:28.557Z,10.00
2023-01-12T18:10:16.674Z,10.00
2023-01-12T18:20:53.696Z,10.00
2023-01-12T18:24:00.606Z,10.00
2023-01-12T18:26:38.120Z,10.00
2023-01-12T18:38:40.004Z,9.90
2023-01-12T18:41:40.634Z,9.90
2023-01-12T18:44:15.426Z,9.90
2023-01-12T18:47:21.724Z,9.90
2023-01-12T18:50:03.049Z,9.90
2023-01-12T18:52:39.406Z,9.90
2023-01-12T18:58:27.111Z,9.90
2023-01-12T19:01:21.876Z,9.90
2023-01-12T19:04:40.917Z,9.80
2023-01-12T19:53:09.641Z,9.90
2023-01-12T20:21:04.291Z,9.70
2023-01-12T20:23:05.357Z,9.70
2023-01-12T20:33:04.862Z,9.60
2023-01-12T20:35:33.811Z,9.60
2023-01-12T20:38:05.213Z,9.60
2023-01-12T20:40:39.625Z,9.60
2023-01-12T20:46:47.758Z,9.60
2023-01-12T20:49:14.691Z,9.60
2023-01-12T20:51:42.255Z,9.50
2023-01-12T20:54:17.999Z,9.50
2023-01-12T20:56:47.794Z,9.50
2023-01-12T21:02:22.889Z,9.50
2023-01-12T21:04:50.357Z,9.60
2023-01-12T21:07:21.766Z,9.60
2023-01-12T21:15:37.396Z,9.50
2023-01-12T21:21:16.653Z,9.50
2023-01-12T21:26:31.818Z,9.50
2023-01-12T21:32:30.903Z,9.60
2023-01-12T21:41:58.410Z,9.70
2023-01-12T21:47:53.318Z,9.60
2023-01-12T22:05:00.296Z,9.30
2023-01-12T22:26:52.228Z,9.30
2023-01-12T22:29:43.173Z,9.30
2023-01-12T22:35:18.458Z,9.30
2023-01-12T22:41:27.181Z,9.20
2023-01-12T22:44:15.808Z,9.10
2023-01-12T22:46:42.621Z,9.00
2023-01-12T22:49:20.396Z,9.00
2023-01-12T22:51:47.463Z,8.90
2023-01-12T22:54:19.289Z,8.90
2023-01-12T22:57:11.603Z,8.90
2023-01-12T23:02:39.876Z,9.00
2023-01-12T23:05:16.428Z,9.10
2023-01-12T23:08:00.749Z,9.10
2023-01-12T23:10:30.712Z,9.20
2023-01-12T23:13:52.262Z,9.20
2023-01-12T23:28:21.625Z,8.90
2023-01-12T23:31:32.783Z,8.80
2023-01-12T23:40:35.732Z,8.60
2023-01-12T23:43:07.736Z,8.50
2023-01-12T23:45:37.516Z,8.50
